createdAt,value
2019-03-24T00:02:28.705Z,101269.31
2019-03-24T00:04:59.720Z,101269.78
2019-03-24T00:07:30.834Z,101277.58
2019-03-24T00:10:02.844Z,101270.68
2019-03-24T00:12:33.955Z,101271.12
2019-03-24T00:15:09.378Z,101273.80
2019-03-24T00:17:40.997Z,101272.11
2019-03-24T00:20:13.718Z,101278.19
2019-03-24T00:22:44.838Z,101278.63
2019-03-24T00:25:15.949Z,101279.47
2019-03-24T00:27:47.091Z,101284.30
2019-03-24T00:30:18.235Z,101281.70
2019-03-24T00:32:49.319Z,101284.75
2019-03-24T00:35:20.452Z,101286.95
2019-03-24T00:37:51.623Z,101286.06
2019-03-24T00:40:22.834Z,101286.11
2019-03-24T00:42:54.398Z,101287.90
2019-03-24T00:45:36.215Z,101279.66
2019-03-24T00:47:58.411Z,101280.55
2019-03-24T00:50:29.535Z,101282.30
2019-03-24T00:53:00.699Z,101280.56
2019-03-24T00:55:31.744Z,101274.93
2019-03-24T00:58:02.803Z,101271.46
2019-03-24T01:00:45.317Z,101276.25
2019-03-24T01:03:16.602Z,101272.80
2019-03-24T01:05:47.835Z,101261.08
2019-03-24T01:08:19.159Z,101258.49
2019-03-24T01:10:50.278Z,101254.15
2019-03-24T01:13:23.242Z,101251.16
2019-03-24T01:15:54.307Z,101248.99
2019-03-24T01:18:25.455Z,101254.22
2019-03-24T01:20:56.602Z,101261.21
2019-03-24T01:23:27.666Z,101260.33
2019-03-24T01:25:58.759Z,101258.63
2019-03-24T01:28:30.026Z,101269.47
2019-03-24T01:31:01.078Z,101273.39
2019-03-24T01:33:32.254Z,101269.95
2019-03-24T01:36:03.463Z,101273.41
2019-03-24T01:38:34.545Z,101280.77
2019-03-24T01:41:08.001Z,101282.09
2019-03-24T01:43:39.745Z,101280.30
2019-03-24T01:46:10.803Z,101278.11
2019-03-24T01:48:42.197Z,101279.00
2019-03-24T01:51:13.360Z,101281.63
2019-03-24T01:53:45.529Z,101286.41
2019-03-24T01:56:16.706Z,101280.74
2019-03-24T01:58:47.879Z,101282.05
2019-03-24T02:01:19.107Z,101272.07
2019-03-24T02:03:50.444Z,101274.73
2019-03-24T02:06:21.463Z,101269.09
2019-03-24T02:08:52.624Z,101271.20
2019-03-24T02:11:23.837Z,101279.88
2019-03-24T02:13:54.876Z,101275.14
2019-03-24T02:16:26.029Z,101270.77
2019-03-24T02:18:57.329Z,101268.97
2019-03-24T02:21:28.451Z,101264.70
2019-03-24T02:24:00.204Z,101269.89
2019-03-24T02:26:31.374Z,101272.92
2019-03-24T02:29:02.558Z,101272.10
2019-03-24T02:31:34.768Z,101281.59
2019-03-24T02:34:05.779Z,101276.42
2019-03-24T02:36:37.364Z,101275.06
2019-03-24T02:39:08.652Z,101275.10
2019-03-24T02:41:39.779Z,101276.80
2019-03-24T02:44:11.040Z,101269.05
2019-03-24T02:46:42.401Z,101264.69
2019-03-24T02:49:14.494Z,101278.96
2019-03-24T02:51:45.658Z,101282.00
2019-03-24T02:54:16.942Z,101285.42
2019-03-24T02:56:47.929Z,101279.38
2019-03-24T02:59:20.316Z,101273.73
2019-03-24T03:01:51.593Z,101271.59
2019-03-24T03:04:22.680Z,101277.23
2019-03-24T03:06:53.782Z,101276.41
2019-03-24T03:09:26.468Z,101272.88
2019-03-24T03:11:57.494Z,101276.36
2019-03-24T03:14:28.583Z,101273.77
2019-03-24T03:16:59.768Z,101272.89
2019-03-24T03:19:31.002Z,101278.48
2019-03-24T03:22:02.181Z,101273.73
2019-03-24T03:24:33.441Z,101268.59
2019-03-24T03:27:04.666Z,101272.89
2019-03-24T03:29:37.693Z,101281.58
2019-03-24T03:32:08.978Z,101280.70
2019-03-24T03:34:40.077Z,101277.66
2019-03-24T03:37:11.193Z,101274.25
2019-03-24T03:39:42.388Z,101271.65
2019-03-24T03:42:13.503Z,101276.34
2019-03-24T03:44:44.722Z,101274.20
2019-03-24T03:47:15.794Z,101286.30
2019-03-24T03:49:46.867Z,101285.91
2019-03-24T03:52:17.969Z,101290.23
2019-03-24T03:54:49.110Z,101286.77
2019-03-24T03:57:20.165Z,101282.03
2019-03-24T03:59:51.433Z,101279.83
2019-03-24T04:02:22.678Z,101274.22
2019-03-24T04:04:53.833Z,101266.42
2019-03-24T04:07:24.970Z,101266.43
2019-03-24T04:09:56.166Z,101265.50
2019-03-24T04:12:27.217Z,101266.75
2019-03-24T04:14:58.306Z,101272.80
2019-03-24T04:17:29.469Z,101267.98
2019-03-24T04:20:00.710Z,101270.55
2019-03-24T04:22:31.828Z,101267.13
2019-03-24T04:25:03.055Z,101271.91
2019-03-24T04:27:34.186Z,101279.23
2019-03-24T04:30:06.798Z,101285.36
2019-03-24T04:32:38.013Z,101288.34
2019-03-24T04:35:09.117Z,101282.73
2019-03-24T04:37:40.326Z,101284.81
2019-03-24T04:40:12.939Z,101277.42
2019-03-24T04:42:44.183Z,101279.55
2019-03-24T04:45:15.315Z,101271.46
2019-03-24T04:47:46.437Z,101269.17
2019-03-24T04:50:17.613Z,101273.50
2019-03-24T04:52:48.689Z,101277.75
2019-03-24T04:55:19.980Z,101277.34
2019-03-24T04:57:51.143Z,101273.38
2019-03-24T05:00:25.630Z,101273.31
2019-03-24T05:02:56.867Z,101279.83
2019-03-24T05:05:28.092Z,101279.84
2019-03-24T05:07:59.206Z,101254.36
2019-03-24T05:10:30.313Z,101262.48
2019-03-24T05:13:01.453Z,101262.42
2019-03-24T05:15:32.658Z,101264.55
2019-03-24T05:18:06.693Z,101258.44
2019-03-24T05:20:37.948Z,101260.70
2019-03-24T05:23:08.947Z,101262.38
2019-03-24T05:25:40.024Z,101263.56
2019-03-24T05:28:11.088Z,101269.28
2019-03-24T05:30:42.237Z,101288.33
2019-03-24T05:33:13.364Z,101276.59
2019-03-24T05:35:44.438Z,101260.50
2019-03-24T05:38:15.551Z,101259.13
2019-03-24T05:40:46.622Z,101268.67
2019-03-24T05:43:17.939Z,101263.40
2019-03-24T05:45:49.015Z,101265.92
2019-03-24T05:48:20.136Z,101277.27
2019-03-24T05:50:51.239Z,101285.98
2019-03-24T05:53:22.294Z,101278.95
2019-03-24T05:55:53.397Z,101273.59
2019-03-24T05:58:25.527Z,101282.19
2019-03-24T06:00:56.884Z,101278.68
2019-03-24T06:03:27.958Z,101284.31
2019-03-24T06:05:59.064Z,101274.63
2019-03-24T06:08:30.184Z,101285.00
2019-03-24T06:11:01.503Z,101284.98
2019-03-24T06:13:32.611Z,101283.92
2019-03-24T06:16:05.288Z,101283.47
2019-03-24T06:18:36.431Z,101293.86
2019-03-24T06:21:07.554Z,101294.20
2019-03-24T06:23:40.362Z,101284.02
2019-03-24T06:26:11.477Z,101274.02
2019-03-24T06:28:44.883Z,101272.62
2019-03-24T06:31:17.665Z,101265.78
2019-03-24T06:33:48.854Z,101265.39
2019-03-24T06:36:19.895Z,101264.42
2019-03-24T06:38:51.039Z,101263.23
2019-03-24T06:41:23.048Z,101261.80
2019-03-24T06:43:54.350Z,101271.02
2019-03-24T06:46:25.513Z,101275.78
2019-03-24T06:48:56.679Z,101279.16
2019-03-24T06:51:27.802Z,101265.96
2019-03-24T06:53:58.902Z,101258.40
2019-03-24T06:56:30.001Z,101265.08
2019-03-24T06:59:01.904Z,101266.59
2019-03-24T07:01:33.244Z,101268.93
2019-03-24T07:04:04.403Z,101271.09
2019-03-24T07:06:37.114Z,101273.17
2019-03-24T07:09:08.247Z,101279.87
2019-03-24T07:11:39.320Z,101266.91
2019-03-24T07:14:10.433Z,101264.29
2019-03-24T07:16:41.465Z,101267.48
2019-03-24T07:19:12.624Z,101267.60
2019-03-24T07:21:43.558Z,101260.86
2019-03-24T07:24:15.697Z,101264.86
2019-03-24T07:26:46.788Z,101268.78
2019-03-24T07:29:17.908Z,101263.55
2019-03-24T07:31:50.762Z,101262.33
2019-03-24T07:34:21.900Z,101254.76
2019-03-24T07:36:52.875Z,101256.87
2019-03-24T07:39:23.849Z,101251.19
2019-03-24T07:41:54.903Z,101244.75
2019-03-24T07:44:25.955Z,101229.18
2019-03-24T07:46:58.005Z,101236.02
2019-03-24T07:49:29.146Z,101234.32
2019-03-24T07:52:00.430Z,101238.94
2019-03-24T07:54:31.408Z,101228.53
2019-03-24T07:57:02.542Z,101225.78
2019-03-24T07:59:34.475Z,101220.45
2019-03-24T08:02:05.409Z,101210.60
2019-03-24T08:04:36.612Z,101199.39
2019-03-24T08:07:07.695Z,101208.30
2019-03-24T08:09:38.861Z,101202.33
2019-03-24T08:12:10.429Z,101205.17
2019-03-24T08:14:45.615Z,101204.38
2019-03-24T08:17:16.658Z,101191.98
2019-03-24T08:19:48.128Z,101181.22
2019-03-24T08:22:20.348Z,101178.75
2019-03-24T08:24:52.236Z,101179.17
2019-03-24T08:27:29.862Z,101179.16
2019-03-24T08:30:01.005Z,101181.94
2019-03-24T08:32:32.662Z,101170.34
2019-03-24T08:35:05.146Z,101175.38
2019-03-24T08:37:36.574Z,101174.06
2019-03-24T08:40:07.696Z,101170.17
2019-03-24T08:42:39.721Z,101161.64
2019-03-24T08:45:13.942Z,101158.52
2019-03-24T08:47:44.958Z,101159.73
2019-03-24T08:50:15.956Z,101155.80
2019-03-24T08:52:47.141Z,101153.84
2019-03-24T08:55:18.104Z,101149.39
2019-03-24T08:57:49.462Z,101136.66
2019-03-24T09:00:30.169Z,101133.16
2019-03-24T09:02:53.519Z,101119.11
2019-03-24T09:05:24.466Z,101115.37
2019-03-24T09:07:55.548Z,101108.55
2019-03-24T09:10:26.622Z,101105.40
2019-03-24T09:12:57.546Z,101108.17
2019-03-24T09:15:28.653Z,101101.95
2019-03-24T09:17:59.706Z,101097.89
2019-03-24T09:20:40.971Z,101101.84
2019-03-24T09:23:04.259Z,101105.97
2019-03-24T09:25:36.099Z,101103.88
2019-03-24T09:28:09.320Z,101105.80
2019-03-24T09:30:40.885Z,101114.66
2019-03-24T09:33:11.885Z,101111.63
2019-03-24T09:35:42.988Z,101101.66
2019-03-24T09:38:14.029Z,101100.86
2019-03-24T09:40:44.906Z,101104.34
2019-03-24T09:43:16.020Z,101100.25
2019-03-24T09:45:47.081Z,101106.31
2019-03-24T09:48:18.481Z,101108.34
2019-03-24T09:50:49.348Z,101107.63
2019-03-24T09:53:21.479Z,101094.88
2019-03-24T09:55:54.365Z,101090.78
2019-03-24T09:58:25.433Z,101092.46
2019-03-24T10:00:56.513Z,101084.26
2019-03-24T10:03:27.905Z,101081.33
2019-03-24T10:05:58.814Z,101088.45
2019-03-24T10:08:29.909Z,101083.77
2019-03-24T10:11:01.075Z,101076.76
2019-03-24T10:13:32.287Z,101081.50
2019-03-24T10:16:03.448Z,101078.14
2019-03-24T10:18:34.379Z,101072.73
2019-03-24T10:21:05.399Z,101063.63
2019-03-24T10:23:36.519Z,101068.56
2019-03-24T10:26:07.571Z,101064.25
2019-03-24T10:28:38.553Z,101064.03
2019-03-24T10:31:09.867Z,101059.20
2019-03-24T10:33:40.970Z,101056.94
2019-03-24T10:36:12.385Z,101056.53
2019-03-24T10:38:43.628Z,101053.47
2019-03-24T10:41:14.601Z,101065.54
2019-03-24T10:43:45.616Z,101044.41
2019-03-24T10:46:16.705Z,101043.27
2019-03-24T10:48:47.874Z,101038.65
2019-03-24T10:51:18.911Z,101038.09
2019-03-24T10:53:50.083Z,101032.05
2019-03-24T10:56:21.093Z,101033.48
2019-03-24T10:58:51.998Z,101017.42
2019-03-24T11:01:23.126Z,101012.09
2019-03-24T11:03:54.268Z,101023.25
2019-03-24T11:06:25.389Z,101016.14
2019-03-24T11:08:56.457Z,101022.50
2019-03-24T11:11:27.457Z,101015.89
2019-03-24T11:13:58.989Z,101012.72
2019-03-24T11:16:30.195Z,101006.23
2019-03-24T11:19:01.570Z,100995.80
2019-03-24T11:21:32.627Z,100998.25
2019-03-24T11:24:04.040Z,100998.08
2019-03-24T11:26:35.307Z,100991.05
2019-03-24T11:29:07.569Z,100995.98
2019-03-24T11:31:38.762Z,100988.73
2019-03-24T11:34:09.868Z,100992.68
2019-03-24T11:36:41.083Z,100983.52
2019-03-24T11:39:12.300Z,100982.27
2019-03-24T11:41:43.346Z,100983.91
2019-03-24T11:44:14.687Z,100984.30
2019-03-24T11:46:45.814Z,100981.94
2019-03-24T11:49:16.152Z,100986.02
2019-03-24T11:51:47.285Z,100984.77
2019-03-24T11:54:18.615Z,100984.57
2019-03-24T11:56:49.732Z,100982.63
2019-03-24T11:59:20.834Z,100980.69
2019-03-24T12:01:51.795Z,100982.92
2019-03-24T12:04:23.090Z,100977.81
2019-03-24T12:06:54.178Z,100976.33
2019-03-24T12:09:25.255Z,100971.20
2019-03-24T12:11:56.375Z,100965.48
2019-03-24T12:14:27.595Z,100967.12
2019-03-24T12:16:58.643Z,100968.34
2019-03-24T12:19:30.622Z,100964.34
2019-03-24T12:22:01.519Z,100958.64
2019-03-24T12:24:32.633Z,100959.08
2019-03-24T12:27:03.687Z,100951.38
2019-03-24T12:29:34.735Z,100947.66
2019-03-24T12:32:05.658Z,100941.23
2019-03-24T12:34:36.757Z,100945.30
2019-03-24T12:37:07.966Z,100934.08
2019-03-24T12:39:39.133Z,100935.45
2019-03-24T12:42:10.079Z,100930.81
2019-03-24T12:44:41.326Z,100938.22
2019-03-24T12:47:13.051Z,100933.71
2019-03-24T12:49:44.049Z,100932.13
2019-03-24T12:52:15.131Z,100924.73
2019-03-24T12:54:46.136Z,100926.73
2019-03-24T12:57:17.323Z,100931.47
2019-03-24T12:59:48.357Z,100929.13
2019-03-24T13:02:19.773Z,100920.25
2019-03-24T13:04:51.053Z,100925.73
2019-03-24T13:07:22.276Z,100925.13
2019-03-24T13:09:54.050Z,100939.37
2019-03-24T13:12:25.372Z,100940.75
2019-03-24T13:14:56.311Z,100949.23
2019-03-24T13:17:27.367Z,100948.16
2019-03-24T13:19:58.462Z,100954.03
2019-03-24T13:22:29.493Z,100952.56
2019-03-24T13:25:01.882Z,100947.69
2019-03-24T13:27:33.069Z,100934.41
2019-03-24T13:30:05.915Z,100939.66
2019-03-24T13:32:37.049Z,100936.94
2019-03-24T13:37:57.002Z,100929.36
2019-03-24T13:40:28.865Z,100932.94
2019-03-24T13:42:59.920Z,100933.78
2019-03-24T13:45:31.131Z,100932.37
2019-03-24T13:48:02.328Z,100927.91
2019-03-24T13:50:33.391Z,100924.79
2019-03-24T13:53:05.047Z,100916.34
2019-03-24T13:55:39.217Z,100909.38
2019-03-24T13:58:15.688Z,100909.24
2019-03-24T14:00:47.126Z,100909.80
2019-03-24T14:03:18.194Z,100910.81
2019-03-24T14:05:49.297Z,100905.92
2019-03-24T14:08:20.317Z,100912.26
2019-03-24T14:10:51.328Z,100910.25
2019-03-24T14:13:22.555Z,100913.87
2019-03-24T14:15:55.503Z,100908.86
2019-03-24T14:18:26.558Z,100902.27
2019-03-24T14:20:57.743Z,100905.68
2019-03-24T14:23:28.786Z,100900.88
2019-03-24T14:25:59.754Z,100897.92
2019-03-24T14:28:30.789Z,100901.67
2019-03-24T14:31:01.821Z,100895.39
2019-03-24T14:33:34.128Z,100899.56
2019-03-24T14:36:05.380Z,100899.97
2019-03-24T14:38:36.473Z,100891.22
2019-03-24T14:41:08.869Z,100891.97
2019-03-24T14:43:41.076Z,100890.43
2019-03-24T14:46:12.245Z,100892.83
2019-03-24T14:48:43.486Z,100886.18
2019-03-24T14:51:14.704Z,100886.65
2019-03-24T14:53:45.880Z,100882.67
2019-03-24T14:56:16.963Z,100878.27
2019-03-24T14:58:48.080Z,100880.20
2019-03-24T15:01:19.089Z,100870.14
2019-03-24T15:03:50.124Z,100865.44
2019-03-24T15:06:22.337Z,100866.76
2019-03-24T15:08:53.602Z,100867.22
2019-03-24T15:11:25.892Z,100865.97
2019-03-24T15:13:57.000Z,100858.21
2019-03-24T15:16:28.162Z,100863.66
2019-03-24T15:18:59.341Z,100853.34
2019-03-24T15:21:30.535Z,100857.63
2019-03-24T15:24:01.774Z,100853.28
2019-03-24T15:26:33.017Z,100853.81
2019-03-24T15:29:05.829Z,100851.17
2019-03-24T15:31:37.454Z,100854.50
2019-03-24T15:34:08.703Z,100850.81
2019-03-24T15:36:39.942Z,100853.38
2019-03-24T15:39:11.159Z,100851.56
2019-03-24T15:41:43.525Z,100853.19
2019-03-24T15:44:14.798Z,100853.28
2019-03-24T15:46:46.902Z,100846.80
2019-03-24T15:49:18.145Z,100845.48
2019-03-24T15:51:49.220Z,100840.29
2019-03-24T15:54:22.650Z,100844.99
2019-03-24T15:56:53.794Z,100843.61
2019-03-24T15:59:25.068Z,100845.09
2019-03-24T16:01:56.219Z,100847.95
2019-03-24T16:04:27.525Z,100847.72
2019-03-24T16:06:59.145Z,100842.53
2019-03-24T16:09:30.267Z,100836.19
2019-03-24T16:12:01.459Z,100834.19
2019-03-24T16:14:32.753Z,100832.94
2019-03-24T16:17:03.929Z,100832.77
2019-03-24T16:19:39.108Z,100836.38
2019-03-24T16:22:11.993Z,100841.64
2019-03-24T16:24:43.106Z,100838.88
2019-03-24T16:27:17.210Z,100839.87
2019-03-24T16:29:48.522Z,100833.75
2019-03-24T16:32:23.244Z,100834.25
2019-03-24T16:34:55.733Z,100844.30
2019-03-24T16:37:27.824Z,100837.70
2019-03-24T16:39:59.524Z,100838.95
2019-03-24T16:42:32.947Z,100836.12
2019-03-24T16:45:05.213Z,100838.19
2019-03-24T16:47:36.409Z,100837.11
2019-03-24T16:50:07.968Z,100834.25
2019-03-24T16:52:39.143Z,100828.92
2019-03-24T16:55:12.229Z,100838.09
2019-03-24T16:57:44.280Z,100834.08
2019-03-24T17:00:15.419Z,100837.92
2019-03-24T17:02:46.773Z,100842.17
2019-03-24T17:05:18.011Z,100839.53
2019-03-24T17:07:50.208Z,100837.47
2019-03-24T17:10:21.645Z,100830.04
2019-03-24T17:12:52.704Z,100829.52
2019-03-24T17:15:23.784Z,100830.04
2019-03-24T17:17:55.035Z,100830.66
2019-03-24T17:20:26.336Z,100822.84
2019-03-24T17:22:57.518Z,100827.08
2019-03-24T17:25:28.828Z,100817.64
2019-03-24T17:28:00.604Z,100821.69
2019-03-24T17:30:32.180Z,100828.78
2019-03-24T17:33:03.741Z,100822.34
2019-03-24T17:35:34.854Z,100816.49
2019-03-24T17:38:06.116Z,100820.50
2019-03-24T17:40:39.019Z,100822.20
2019-03-24T17:43:12.135Z,100817.48
2019-03-24T17:45:43.379Z,100818.27
2019-03-24T17:48:14.724Z,100821.42
2019-03-24T17:50:46.194Z,100820.56
2019-03-24T17:53:17.453Z,100819.19
2019-03-24T17:55:49.238Z,100823.92
2019-03-24T17:58:20.721Z,100821.02
2019-03-24T18:00:54.372Z,100819.19
2019-03-24T18:03:28.383Z,100821.05
2019-03-24T18:06:00.983Z,100827.53
2019-03-24T18:08:32.315Z,100817.08
2019-03-24T18:11:03.618Z,100821.36
2019-03-24T18:13:34.879Z,100819.02
2019-03-24T18:16:06.121Z,100815.64
2019-03-24T18:18:37.241Z,100809.86
2019-03-24T18:21:08.473Z,100814.78
2019-03-24T18:23:39.659Z,100814.09
2019-03-24T18:26:10.808Z,100818.50
2019-03-24T18:28:42.049Z,100824.09
2019-03-24T18:31:13.374Z,100825.86
2019-03-24T18:33:44.884Z,100819.63
2019-03-24T18:36:16.018Z,100815.97
2019-03-24T18:38:50.744Z,100819.16
2019-03-24T18:41:22.041Z,100815.12
2019-03-24T18:43:53.389Z,100808.64
2019-03-24T18:46:24.465Z,100807.85
2019-03-24T18:48:55.684Z,100811.27
2019-03-24T18:51:27.008Z,100805.09
2019-03-24T18:53:58.233Z,100808.94
2019-03-24T18:56:29.704Z,100810.95
2019-03-24T18:59:00.929Z,100810.61
2019-03-24T19:01:32.178Z,100810.78
2019-03-24T19:04:04.512Z,100802.11
2019-03-24T19:06:36.270Z,100810.16
2019-03-24T19:09:08.926Z,100801.48
2019-03-24T19:11:40.251Z,100805.36
2019-03-24T19:14:11.467Z,100810.61
2019-03-24T19:16:43.561Z,100808.55
2019-03-24T19:19:14.821Z,100813.31
2019-03-24T19:21:47.763Z,100805.19
2019-03-24T19:24:19.027Z,100805.42
2019-03-24T19:26:50.274Z,100800.72
2019-03-24T19:29:21.380Z,100800.49
2019-03-24T19:31:54.419Z,100794.55
2019-03-24T19:34:25.657Z,100796.71
2019-03-24T19:36:57.670Z,100791.22
2019-03-24T19:39:29.147Z,100790.62
2019-03-24T19:42:00.386Z,100785.29
2019-03-24T19:44:31.703Z,100784.95
2019-03-24T19:47:03.914Z,100789.55
2019-03-24T19:49:35.081Z,100786.67
2019-03-24T19:52:07.416Z,100791.15
2019-03-24T19:54:40.340Z,100793.25
2019-03-24T19:57:13.202Z,100789.77
2019-03-24T19:59:44.769Z,100795.77
2019-03-24T20:02:16.068Z,100790.61
2019-03-24T20:04:47.310Z,100789.55
2019-03-24T20:07:18.699Z,100799.17
2019-03-24T20:09:50.117Z,100800.75
2019-03-24T20:12:23.770Z,100799.58
2019-03-24T20:14:56.355Z,100791.69
2019-03-24T20:17:27.593Z,100795.17
2019-03-24T20:19:58.829Z,100793.14
2019-03-24T20:22:30.268Z,100801.03
2019-03-24T20:25:01.500Z,100796.48
2019-03-24T20:27:33.055Z,100800.59
2019-03-24T20:30:07.016Z,100792.55
2019-03-24T20:32:39.358Z,100788.53
2019-03-24T20:35:10.608Z,100790.83
2019-03-24T20:37:41.814Z,100787.88
2019-03-24T20:40:13.922Z,100788.91
2019-03-24T20:42:45.513Z,100789.91
2019-03-24T20:45:20.169Z,100789.55
2019-03-24T20:47:51.901Z,100783.11
2019-03-24T20:50:24.305Z,100796.39
2019-03-24T20:53:04.038Z,100795.18
2019-03-24T20:55:28.905Z,100797.41
2019-03-24T20:58:01.710Z,100795.95
2019-03-24T21:00:36.323Z,100794.41
2019-03-24T21:03:07.982Z,100801.57
2019-03-24T21:05:39.925Z,100798.26
2019-03-24T21:08:11.256Z,100795.40
2019-03-24T21:10:44.812Z,100791.84
2019-03-24T21:13:16.176Z,100795.80
2019-03-24T21:15:49.015Z,100792.84
2019-03-24T21:18:20.327Z,100785.11
2019-03-24T21:20:53.394Z,100785.57
2019-03-24T21:23:30.046Z,100786.42
2019-03-24T21:26:06.827Z,100789.70
2019-03-24T21:28:39.251Z,100788.95
2019-03-24T21:31:10.574Z,100785.14
2019-03-24T21:33:42.542Z,100790.09
2019-03-24T21:36:16.428Z,100784.28
2019-03-24T21:38:47.617Z,100784.44
2019-03-24T21:41:18.883Z,100785.59
2019-03-24T21:43:50.103Z,100791.70
2019-03-24T21:46:21.531Z,100792.66
2019-03-24T21:48:52.853Z,100786.05
2019-03-24T21:51:24.002Z,100793.98
2019-03-24T21:53:55.197Z,100781.98
2019-03-24T21:56:26.400Z,100780.55
2019-03-24T21:58:57.664Z,100768.80
2019-03-24T22:01:32.792Z,100765.70
2019-03-24T22:04:05.613Z,100765.25
2019-03-24T22:06:37.289Z,100761.53
2019-03-24T22:09:08.494Z,100759.23
2019-03-24T22:11:41.914Z,100752.92
2019-03-24T22:14:15.481Z,100754.85
2019-03-24T22:16:47.483Z,100761.41
2019-03-24T22:19:18.909Z,100764.99
2019-03-24T22:21:53.222Z,100761.23
2019-03-24T22:24:24.645Z,100766.03
2019-03-24T22:26:55.679Z,100763.50
2019-03-24T22:29:27.199Z,100769.85
2019-03-24T22:31:58.481Z,100766.86
2019-03-24T22:34:34.128Z,100769.03
2019-03-24T22:37:15.424Z,100764.75
2019-03-24T22:39:38.275Z,100762.13
2019-03-24T22:42:10.432Z,100764.42
2019-03-24T22:44:44.428Z,100767.34
2019-03-24T22:47:16.828Z,100768.19
2019-03-24T22:49:49.667Z,100767.62
2019-03-24T22:52:23.878Z,100766.36
2019-03-24T22:54:56.048Z,100764.41
2019-03-24T22:57:27.438Z,100772.14
2019-03-24T22:59:58.747Z,100771.83
2019-03-24T23:02:30.947Z,100773.20
2019-03-24T23:05:02.544Z,100774.56
2019-03-24T23:07:34.847Z,100778.22
2019-03-24T23:10:06.152Z,100778.62
2019-03-24T23:12:37.474Z,100780.44
2019-03-24T23:15:08.583Z,100784.46
2019-03-24T23:17:39.892Z,100777.91
2019-03-24T23:20:11.205Z,100771.94
2019-03-24T23:22:43.486Z,100766.61
2019-03-24T23:25:14.708Z,100767.52
2019-03-24T23:27:45.972Z,100766.01
2019-03-24T23:30:17.112Z,100758.59
2019-03-24T23:32:48.729Z,100756.51
2019-03-24T23:35:21.075Z,100758.22
2019-03-24T23:37:52.740Z,100755.80
2019-03-24T23:40:26.980Z,100764.23
2019-03-24T23:42:58.113Z,100761.45
2019-03-24T23:45:29.412Z,100764.09
2019-03-24T23:48:00.514Z,100756.88
2019-03-24T23:50:31.698Z,100765.12
2019-03-24T23:53:03.807Z,100767.41
2019-03-24T23:55:34.848Z,100762.34
2019-03-24T23:58:06.752Z,100762.41
